createdAt,value
2023-02-11T00:01:48.552Z,103208.72
2023-02-11T00:04:15.103Z,103221.84
2023-02-11T00:06:41.674Z,103210.16
2023-02-11T00:09:08.578Z,103140.47
2023-02-11T00:11:35.177Z,103212.41
2023-02-11T00:14:04.779Z,103216.66
2023-02-11T00:16:32.435Z,103105.44
2023-02-11T00:19:00.718Z,103146.56
2023-02-11T00:21:28.307Z,103110.94
2023-02-11T00:23:57.057Z,103206.88
2023-02-11T00:26:26.781Z,103215.34
2023-02-11T00:28:53.797Z,103213.81
2023-02-11T00:31:22.627Z,103210.75
2023-02-11T00:33:49.632Z,103206.88
2023-02-11T00:36:19.867Z,103215.53
2023-02-11T00:38:47.933Z,103207.22
2023-02-11T00:41:15.116Z,103213.81
2023-02-11T00:43:42.283Z,103200.69
2023-02-11T00:46:09.260Z,103210.66
2023-02-11T00:48:36.256Z,103208.91
2023-02-11T00:51:04.124Z,103199.97
2023-02-11T00:53:31.539Z,103209.63
2023-02-11T00:55:58.192Z,103131.34
2023-02-11T00:58:25.654Z,103130.03
2023-02-11T01:00:53.416Z,103210.25
2023-02-11T01:03:20.012Z,103113.56
2023-02-11T01:05:48.148Z,103213.09
2023-02-11T01:08:14.857Z,103217.25
2023-02-11T01:10:41.444Z,103222.25
2023-02-11T01:13:08.241Z,103232.72
2023-02-11T01:15:34.840Z,103130.22
2023-02-11T01:18:01.477Z,103202.25
2023-02-11T01:20:29.532Z,103218.69
2023-02-11T01:22:56.816Z,103209.94
2023-02-11T01:25:23.369Z,103208.13
2023-02-11T01:27:49.905Z,103207.41
2023-02-11T01:30:16.491Z,103182.72
2023-02-11T01:32:43.072Z,103192.25
2023-02-11T01:35:10.625Z,103188.81
2023-02-11T01:37:37.190Z,103163.59
2023-02-11T01:40:07.997Z,103159.94
2023-02-11T01:42:34.647Z,103174.19
2023-02-11T01:45:21.742Z,103146.97
2023-02-11T01:47:48.260Z,103078.72
2023-02-11T01:50:14.857Z,103063.63
2023-02-11T01:52:42.609Z,103164.00
2023-02-11T01:55:31.228Z,103068.59
2023-02-11T01:58:02.426Z,103075.19
2023-02-11T02:00:38.558Z,103161.38
2023-02-11T02:03:10.086Z,103189.75
2023-02-11T02:05:53.485Z,103207.72
2023-02-11T02:08:29.459Z,103215.66
2023-02-11T02:10:58.384Z,103124.03
2023-02-11T02:13:25.596Z,103184.94
2023-02-11T02:15:53.972Z,103105.75
2023-02-11T02:18:31.130Z,103193.41
2023-02-11T02:21:11.311Z,103163.00
2023-02-11T02:24:03.990Z,103182.50
2023-02-11T02:26:39.509Z,103185.16
2023-02-11T02:29:28.092Z,103178.84
2023-02-11T02:32:10.255Z,103170.09
2023-02-11T02:34:44.446Z,103157.31
2023-02-11T02:37:24.161Z,103055.50
2023-02-11T02:39:50.895Z,103163.63
2023-02-11T02:42:19.745Z,103170.31
2023-02-11T02:44:52.000Z,103157.72
2023-02-11T02:47:19.407Z,103172.66
2023-02-11T02:49:45.952Z,103180.19
2023-02-11T02:52:29.406Z,103179.47
2023-02-11T02:55:10.936Z,103165.03
2023-02-11T02:57:55.809Z,103166.88
2023-02-11T03:00:47.778Z,103060.41
2023-02-11T03:03:35.793Z,103156.53
2023-02-11T03:06:12.843Z,103060.72
2023-02-11T03:08:56.557Z,103160.19
2023-02-11T03:11:24.748Z,103151.19
2023-02-11T03:13:52.563Z,103129.56
2023-02-11T03:16:36.050Z,103177.38
2023-02-11T03:19:08.678Z,103146.38
2023-02-11T03:21:38.434Z,103155.53
2023-02-11T03:24:16.574Z,103153.38
2023-02-11T03:26:54.811Z,103113.16
2023-02-11T03:29:44.119Z,103156.44
2023-02-11T03:32:16.441Z,103166.28
2023-02-11T03:35:09.323Z,103161.22
2023-02-11T03:37:52.608Z,103147.00
2023-02-11T03:40:25.464Z,103152.69
2023-02-11T03:43:21.085Z,103149.31
2023-02-11T03:45:51.060Z,103155.53
2023-02-11T03:48:29.831Z,103041.31
2023-02-11T03:50:59.577Z,103129.72
2023-02-11T03:53:26.181Z,103030.88
2023-02-11T03:55:54.801Z,103069.94
2023-02-11T03:58:21.301Z,103134.91
2023-02-11T04:00:48.870Z,103113.25
2023-02-11T04:03:15.441Z,103119.88
2023-02-11T04:05:42.125Z,103124.63
2023-02-11T04:08:08.980Z,103115.41
2023-02-11T04:10:35.604Z,103073.91
2023-02-11T04:13:02.093Z,103131.34
2023-02-11T04:15:28.663Z,103140.06
2023-02-11T04:17:55.202Z,103113.06
2023-02-11T04:20:21.732Z,103124.22
2023-02-11T04:22:48.311Z,103137.44
2023-02-11T04:25:14.816Z,103145.75
2023-02-11T04:27:41.304Z,103121.59
2023-02-11T04:30:08.319Z,103077.97
2023-02-11T04:32:34.851Z,103155.72
2023-02-11T04:35:02.170Z,103129.13
2023-02-11T04:37:28.766Z,103156.72
2023-02-11T04:39:55.279Z,103148.00
2023-02-11T04:42:23.544Z,103141.50
2023-02-11T04:44:50.147Z,103048.63
2023-02-11T04:47:16.777Z,103140.69
2023-02-11T04:49:43.615Z,103147.38
2023-02-11T04:52:10.520Z,103056.44
2023-02-11T04:54:37.120Z,103146.38
2023-02-11T04:57:03.683Z,103144.13
2023-02-11T04:59:30.254Z,103126.56
2023-02-11T05:01:56.882Z,103158.25
2023-02-11T05:04:23.543Z,103144.75
2023-02-11T05:06:50.155Z,103154.19
2023-02-11T05:09:16.916Z,103067.63
2023-02-11T05:11:43.547Z,103136.41
2023-02-11T05:14:10.095Z,103133.56
2023-02-11T05:16:36.697Z,103052.59
2023-02-11T05:19:03.590Z,103051.56
2023-02-11T05:21:30.287Z,103031.69
2023-02-11T05:23:56.882Z,103130.50
2023-02-11T05:26:23.375Z,103114.06
2023-02-11T05:28:49.928Z,103130.59
2023-02-11T05:31:16.880Z,103140.84
2023-02-11T05:33:43.466Z,103117.91
2023-02-11T05:36:12.618Z,103127.25
2023-02-11T05:38:39.724Z,103048.50
2023-02-11T05:41:06.980Z,103046.88
2023-02-11T05:43:35.262Z,103147.69
2023-02-11T05:46:02.861Z,103068.59
2023-02-11T05:48:29.787Z,103133.44
2023-02-11T05:50:56.598Z,103159.84
2023-02-11T05:53:23.246Z,103094.34
2023-02-11T05:55:50.192Z,103149.19
2023-02-11T05:58:16.824Z,103037.13
2023-02-11T06:00:43.323Z,103089.91
2023-02-11T06:03:09.954Z,103145.53
2023-02-11T06:05:36.536Z,103153.75
2023-02-11T06:08:03.165Z,103154.66
2023-02-11T06:10:30.327Z,103046.03
2023-02-11T06:12:56.839Z,103165.63
2023-02-11T06:15:23.525Z,103154.25
2023-02-11T06:17:50.107Z,103133.13
2023-02-11T06:20:16.759Z,103164.09
2023-02-11T06:22:43.306Z,103145.00
2023-02-11T06:25:11.166Z,103063.19
2023-02-11T06:27:38.282Z,103156.16
2023-02-11T06:30:06.287Z,103037.50
2023-02-11T06:32:43.690Z,103070.38
2023-02-11T06:35:12.144Z,103070.69
2023-02-11T06:37:39.078Z,103142.84
2023-02-11T06:40:06.312Z,103148.25
2023-02-11T06:42:32.924Z,103139.00
2023-02-11T06:44:59.455Z,103055.56
2023-02-11T06:47:25.957Z,103151.78
2023-02-11T06:49:52.480Z,103053.34
2023-02-11T06:52:19.021Z,103148.97
2023-02-11T06:54:45.560Z,103156.28
2023-02-11T06:57:12.161Z,103163.16
2023-02-11T06:59:38.711Z,103168.88
2023-02-11T07:02:05.313Z,103093.13
2023-02-11T07:04:31.839Z,103081.78
2023-02-11T07:06:58.348Z,103080.34
2023-02-11T07:09:24.866Z,103136.78
2023-02-11T07:11:51.464Z,103177.81
2023-02-11T07:14:18.131Z,103138.63
2023-02-11T07:16:44.654Z,103176.06
2023-02-11T07:19:11.271Z,103109.38
2023-02-11T07:21:37.795Z,103173.44
2023-02-11T07:24:11.046Z,103159.31
2023-02-11T07:26:38.011Z,103174.66
2023-02-11T07:29:04.902Z,103177.56
2023-02-11T07:31:32.060Z,103179.00
2023-02-11T07:34:00.816Z,103170.88
2023-02-11T07:36:29.028Z,103190.19
2023-02-11T07:38:55.646Z,103181.44
2023-02-11T07:41:23.395Z,103193.75
2023-02-11T07:43:50.835Z,103201.97
2023-02-11T07:46:20.889Z,103151.09
2023-02-11T07:48:47.814Z,103187.53
2023-02-11T07:51:17.170Z,103201.81
2023-02-11T07:53:45.776Z,103161.09
2023-02-11T07:56:14.258Z,103180.19
2023-02-11T07:58:42.988Z,103112.38
2023-02-11T08:01:16.785Z,103195.91
2023-02-11T08:03:43.516Z,103168.41
2023-02-11T08:06:16.622Z,103177.09
2023-02-11T08:08:43.735Z,103175.09
2023-02-11T08:11:16.119Z,103074.84
2023-02-11T08:13:43.230Z,103216.75
2023-02-11T08:16:18.578Z,103218.03
2023-02-11T08:18:45.389Z,103194.56
2023-02-11T08:21:12.142Z,103132.72
2023-02-11T08:23:40.278Z,103206.91
2023-02-11T08:26:10.958Z,103129.34
2023-02-11T08:28:40.005Z,103195.97
2023-02-11T08:31:11.695Z,103192.22
2023-02-11T08:33:40.321Z,103209.06
2023-02-11T08:36:11.511Z,103220.13
2023-02-11T08:38:38.529Z,103200.41
2023-02-11T08:41:05.341Z,103137.06
2023-02-11T08:43:33.315Z,103208.34
2023-02-11T08:46:02.048Z,103120.16
2023-02-11T08:48:29.966Z,103229.84
2023-02-11T08:50:57.238Z,103204.44
2023-02-11T08:53:23.803Z,103213.19
2023-02-11T08:55:52.245Z,103136.81
2023-02-11T08:58:19.743Z,103127.84
2023-02-11T09:00:47.039Z,103206.06
2023-02-11T09:03:15.256Z,103148.44
2023-02-11T09:05:48.180Z,103150.66
2023-02-11T09:08:15.269Z,103150.34
2023-02-11T09:10:42.222Z,103232.03
2023-02-11T09:13:09.489Z,103245.91
2023-02-11T09:15:36.405Z,103165.75
2023-02-11T09:18:04.300Z,103251.78
2023-02-11T09:20:31.576Z,103214.66
2023-02-11T09:22:59.091Z,103250.31
2023-02-11T09:25:25.918Z,103235.78
2023-02-11T09:27:53.705Z,103234.69
2023-02-11T09:30:20.801Z,103230.94
2023-02-11T09:32:47.623Z,103174.13
2023-02-11T09:35:14.347Z,103172.31
2023-02-11T09:37:40.968Z,103229.84
2023-02-11T09:40:07.960Z,103217.59
2023-02-11T09:42:53.711Z,103207.91
2023-02-11T09:45:29.333Z,103272.50
2023-02-11T09:48:00.412Z,103274.81
2023-02-11T09:50:36.080Z,103240.44
2023-02-11T09:53:25.186Z,103248.28
2023-02-11T09:55:59.528Z,103272.13
2023-02-11T09:58:28.389Z,103280.59
2023-02-11T10:01:00.511Z,103278.44
2023-02-11T10:03:46.538Z,103289.38
2023-02-11T10:06:43.117Z,103292.88
2023-02-11T10:09:21.627Z,103298.69
2023-02-11T10:12:22.072Z,103298.69
2023-02-11T10:15:18.195Z,103303.81
2023-02-11T10:18:13.251Z,103284.06
2023-02-11T10:21:03.121Z,103265.78
2023-02-11T10:23:35.912Z,103286.31
2023-02-11T10:26:03.429Z,103298.94
2023-02-11T10:28:35.153Z,103216.44
2023-02-11T10:31:06.879Z,103286.50
2023-02-11T10:33:45.329Z,103314.38
2023-02-11T10:36:14.050Z,103259.19
2023-02-11T10:38:40.735Z,103325.88
2023-02-11T10:41:13.558Z,103218.59
2023-02-11T10:43:42.267Z,103312.66
2023-02-11T10:46:19.426Z,103290.53
2023-02-11T10:48:52.777Z,103258.00
2023-02-11T10:51:23.691Z,103243.13
2023-02-11T10:54:14.257Z,103311.75
2023-02-11T10:56:46.322Z,103322.94
2023-02-11T10:59:29.247Z,103254.50
2023-02-11T11:02:06.825Z,103310.47
2023-02-11T11:04:44.854Z,103315.31
2023-02-11T11:07:23.637Z,103333.06
2023-02-11T11:09:59.647Z,103323.34
2023-02-11T11:12:40.255Z,103340.84
2023-02-11T11:15:10.360Z,103336.31
2023-02-11T11:17:37.820Z,103297.72
2023-02-11T11:20:20.638Z,103236.59
2023-02-11T11:22:48.121Z,103333.75
2023-02-11T11:25:27.160Z,103322.00
2023-02-11T11:27:57.730Z,103330.22
2023-02-11T11:30:31.625Z,103309.72
2023-02-11T11:32:59.201Z,103312.66
2023-02-11T11:35:28.544Z,103256.38
2023-02-11T11:38:01.361Z,103286.19
2023-02-11T11:40:31.128Z,103261.38
2023-02-11T11:43:12.897Z,103332.59
2023-02-11T11:45:51.794Z,103295.41
2023-02-11T11:48:26.993Z,103322.53
2023-02-11T11:50:58.018Z,103234.91
2023-02-11T11:53:30.364Z,103328.44
2023-02-11T11:56:04.507Z,103261.19
2023-02-11T11:58:32.127Z,103220.13
2023-02-11T12:01:26.736Z,103318.38
2023-02-11T12:04:11.574Z,103308.31
2023-02-11T12:06:52.368Z,103298.09
2023-02-11T12:09:49.628Z,103324.75
2023-02-11T12:12:32.668Z,103223.75
2023-02-11T12:15:27.446Z,103328.22
2023-02-11T12:18:00.013Z,103320.72
2023-02-11T12:20:26.497Z,103314.72
2023-02-11T12:26:28.068Z,103157.31
2023-02-11T12:29:29.274Z,103292.19
2023-02-11T12:32:22.270Z,103313.25
2023-02-11T12:35:17.930Z,103285.47
2023-02-11T12:38:16.023Z,103304.19
2023-02-11T12:41:01.262Z,103266.03
2023-02-11T12:43:37.012Z,103264.34
2023-02-11T12:46:10.880Z,103268.19
2023-02-11T12:48:51.304Z,103304.97
2023-02-11T12:51:32.174Z,103285.59
2023-02-11T12:54:23.017Z,103281.28
2023-02-11T12:57:03.369Z,103289.56
2023-02-11T12:59:37.834Z,103211.84
2023-02-11T13:02:16.918Z,103211.19
2023-02-11T13:04:50.108Z,103226.56
2023-02-11T13:07:31.004Z,103270.56
2023-02-11T13:10:19.722Z,103261.94
2023-02-11T13:13:08.617Z,103223.59
2023-02-11T13:15:35.478Z,103216.66
2023-02-11T13:18:40.106Z,103295.69
2023-02-11T13:21:15.541Z,103288.78
2023-02-11T13:24:07.548Z,103285.13
2023-02-11T13:26:45.782Z,103278.31
2023-02-11T13:29:33.063Z,103294.00
2023-02-11T13:32:09.320Z,103255.72
2023-02-11T13:34:41.728Z,103289.19
2023-02-11T13:37:37.082Z,103273.69
2023-02-11T13:40:20.409Z,103287.03
2023-02-11T13:42:56.446Z,103132.28
2023-02-11T13:45:38.242Z,103271.63
2023-02-11T13:48:13.524Z,103261.69
2023-02-11T13:50:48.469Z,103218.63
2023-02-11T13:53:17.187Z,103201.53
2023-02-11T13:55:47.729Z,103263.94
2023-02-11T13:58:14.274Z,103289.75
2023-02-11T14:00:47.559Z,103197.09
2023-02-11T14:03:32.501Z,103301.06
2023-02-11T14:06:26.955Z,103294.53
2023-02-11T14:09:09.190Z,103217.34
2023-02-11T14:11:41.828Z,103291.84
2023-02-11T14:14:17.491Z,103293.63
2023-02-11T14:17:01.736Z,103291.66
2023-02-11T14:19:44.227Z,103296.59
2023-02-11T14:22:29.626Z,103293.47
2023-02-11T14:24:57.682Z,103261.00
2023-02-11T14:27:29.472Z,103272.03
2023-02-11T14:30:04.693Z,103191.66
2023-02-11T14:32:47.704Z,103243.88
2023-02-11T14:35:26.019Z,103298.78
2023-02-11T14:38:14.544Z,103305.56
2023-02-11T14:41:06.239Z,103301.47
2023-02-11T14:43:47.099Z,103301.13
2023-02-11T14:46:17.126Z,103271.25
2023-02-11T14:48:47.593Z,103204.53
2023-02-11T14:51:26.942Z,103272.97
2023-02-11T14:53:58.691Z,103214.34
2023-02-11T14:56:30.976Z,103303.66
2023-02-11T14:58:58.255Z,103296.50
2023-02-11T15:01:36.625Z,103297.66
2023-02-11T15:04:05.766Z,103301.97
2023-02-11T15:06:37.333Z,103204.75
2023-02-11T15:09:07.604Z,103180.78
2023-02-11T15:11:39.766Z,103286.81
2023-02-11T15:14:10.439Z,103306.22
2023-02-11T15:16:42.764Z,103209.66
2023-02-11T15:19:21.103Z,103163.41
2023-02-11T15:21:48.287Z,103301.31
2023-02-11T15:24:29.766Z,103317.56
2023-02-11T15:26:57.232Z,103249.59
2023-02-11T15:29:45.051Z,103302.28
2023-02-11T15:32:25.921Z,103252.00
2023-02-11T15:34:54.220Z,103301.13
2023-02-11T15:37:27.187Z,103326.69
2023-02-11T15:39:54.399Z,103341.06
2023-02-11T15:42:31.420Z,103298.50
2023-02-11T15:45:26.030Z,103345.66
2023-02-11T15:47:56.143Z,103250.56
2023-02-11T15:50:32.257Z,103324.34
2023-02-11T15:53:05.722Z,103327.00
2023-02-11T15:55:32.924Z,103334.56
2023-02-11T15:58:01.813Z,103321.84
2023-02-11T16:00:44.774Z,103326.09
2023-02-11T16:03:27.746Z,103301.94
2023-02-11T16:05:56.432Z,103336.38
2023-02-11T16:08:29.764Z,103242.03
2023-02-11T16:11:02.396Z,103242.91
2023-02-11T16:13:33.608Z,103224.13
2023-02-11T16:16:05.856Z,103329.25
2023-02-11T16:18:39.650Z,103324.34
2023-02-11T16:21:15.802Z,103323.13
2023-02-11T16:23:48.764Z,103315.13
2023-02-11T16:26:39.350Z,103330.78
2023-02-11T16:29:11.466Z,103218.78
2023-02-11T16:31:42.079Z,103315.00
2023-02-11T16:34:16.499Z,103307.69
2023-02-11T16:36:43.286Z,103273.78
2023-02-11T16:39:11.054Z,103228.56
2023-02-11T16:41:37.639Z,103231.38
2023-02-11T16:44:04.283Z,103258.28
2023-02-11T16:46:31.798Z,103354.34
2023-02-11T16:49:08.065Z,103349.09
2023-02-11T16:51:34.623Z,103235.09
2023-02-11T16:54:01.228Z,103320.81
2023-02-11T16:56:27.798Z,103340.44
2023-02-11T16:58:54.319Z,103311.84
2023-02-11T17:01:21.095Z,103359.78
2023-02-11T17:03:48.342Z,103329.78
2023-02-11T17:06:15.157Z,103328.69
2023-02-11T17:08:41.828Z,103341.63
2023-02-11T17:11:08.525Z,103383.22
2023-02-11T17:13:36.386Z,103363.28
2023-02-11T17:16:03.020Z,103371.22
2023-02-11T17:18:29.841Z,103355.75
2023-02-11T17:20:56.427Z,103296.44
2023-02-11T17:23:23.030Z,103383.31
2023-02-11T17:25:55.703Z,103392.13
2023-02-11T17:28:22.368Z,103409.72
2023-02-11T17:30:48.935Z,103378.97
2023-02-11T17:33:16.035Z,103233.78
2023-02-11T17:35:42.557Z,103402.84
2023-02-11T17:38:09.111Z,103409.16
2023-02-11T17:40:35.654Z,103378.59
2023-02-11T17:43:02.568Z,103407.91
2023-02-11T17:45:29.348Z,103329.16
2023-02-11T17:47:55.981Z,103405.28
2023-02-11T17:50:22.517Z,103414.66
2023-02-11T17:52:49.027Z,103402.84
2023-02-11T17:55:15.671Z,103313.69
2023-02-11T17:57:42.197Z,103388.34
2023-02-11T18:00:09.618Z,103401.56
2023-02-11T18:02:42.216Z,103373.78
2023-02-11T18:05:09.077Z,103421.66
2023-02-11T18:07:35.742Z,103273.34
2023-02-11T18:10:02.365Z,103307.34
2023-02-11T18:12:29.045Z,103311.22
2023-02-11T18:14:57.979Z,103391.69
2023-02-11T18:17:25.642Z,103449.41
2023-02-11T18:19:56.368Z,103427.84
2023-02-11T18:22:24.460Z,103445.00
2023-02-11T18:24:55.071Z,103406.72
2023-02-11T18:27:22.833Z,103426.47
2023-02-11T18:29:49.591Z,103357.88
2023-02-11T18:32:16.430Z,103336.44
2023-02-11T18:34:43.068Z,103355.56
2023-02-11T18:37:10.306Z,103345.91
2023-02-11T18:39:37.102Z,103458.78
2023-02-11T18:42:03.808Z,103457.28
2023-02-11T18:44:30.329Z,103340.94
2023-02-11T18:46:56.904Z,103469.28
2023-02-11T18:49:23.455Z,103343.63
2023-02-11T18:51:50.130Z,103433.97
2023-02-11T18:54:16.729Z,103472.34
2023-02-11T18:56:43.358Z,103361.81
2023-02-11T18:59:10.052Z,103374.44
2023-02-11T19:01:39.273Z,103476.81
2023-02-11T19:04:06.836Z,103478.16
2023-02-11T19:06:36.393Z,103466.06
2023-02-11T19:09:11.164Z,103372.63
2023-02-11T19:11:49.798Z,103442.44
2023-02-11T19:14:23.679Z,103484.06
2023-02-11T19:16:52.982Z,103391.75
2023-02-11T19:19:24.040Z,103388.41
2023-02-11T19:21:50.820Z,103464.13
2023-02-11T19:24:19.864Z,103455.38
2023-02-11T19:26:48.174Z,103467.28
2023-02-11T19:29:15.303Z,103480.31
2023-02-11T19:31:41.928Z,103486.50
2023-02-11T19:34:10.948Z,103505.59
2023-02-11T19:36:37.906Z,103478.06
2023-02-11T19:39:05.112Z,103473.47
2023-02-11T19:41:33.612Z,103485.41
2023-02-11T19:44:00.825Z,103426.66
2023-02-11T19:46:30.308Z,103424.13
2023-02-11T19:48:56.950Z,103405.41
2023-02-11T19:51:23.603Z,103405.81
2023-02-11T19:53:51.199Z,103484.22
2023-02-11T19:56:20.485Z,103357.78
2023-02-11T19:58:47.560Z,103524.13
2023-02-11T20:01:20.460Z,103461.88
2023-02-11T20:03:54.688Z,103494.38
2023-02-11T20:06:24.558Z,103527.38
2023-02-11T20:09:00.118Z,103439.59
2023-02-11T20:11:29.340Z,103527.84
2023-02-11T20:13:56.736Z,103478.91
2023-02-11T20:16:40.607Z,103543.13
2023-02-11T20:19:16.757Z,103467.88
2023-02-11T20:21:46.800Z,103523.59
2023-02-11T20:24:14.342Z,103453.13
2023-02-11T20:26:42.380Z,103540.28
2023-02-11T20:29:09.491Z,103434.72
2023-02-11T20:31:36.283Z,103534.41
2023-02-11T20:34:03.528Z,103483.56
2023-02-11T20:36:34.035Z,103538.38
2023-02-11T20:39:01.245Z,103450.78
2023-02-11T20:41:34.251Z,103516.06
2023-02-11T20:44:04.227Z,103524.13
2023-02-11T20:46:32.883Z,103553.03
2023-02-11T20:49:00.456Z,103464.81
2023-02-11T20:51:33.093Z,103568.41
2023-02-11T20:54:00.037Z,103569.28
2023-02-11T20:56:30.159Z,103483.16
2023-02-11T20:58:58.564Z,103558.69
2023-02-11T21:01:28.275Z,103563.00
2023-02-11T21:03:58.233Z,103481.31
2023-02-11T21:06:27.672Z,103551.91
2023-02-11T21:08:54.398Z,103580.09
2023-02-11T21:11:20.956Z,103556.91
2023-02-11T21:13:48.593Z,103473.16
2023-02-11T21:16:20.260Z,103587.84
2023-02-11T21:18:48.140Z,103544.69
2023-02-11T21:21:15.656Z,103572.78
2023-02-11T21:23:42.275Z,103498.19
2023-02-11T21:26:09.629Z,103507.56
2023-02-11T21:28:39.827Z,103507.56
2023-02-11T21:31:08.014Z,103499.31
2023-02-11T21:33:35.000Z,103595.97
2023-02-11T21:36:03.923Z,103440.78
2023-02-11T21:38:30.998Z,103512.84
2023-02-11T21:41:03.330Z,103605.28
2023-02-11T21:43:30.084Z,103505.31
2023-02-11T21:45:57.102Z,103577.84
2023-02-11T21:48:25.609Z,103571.03
2023-02-11T21:50:54.792Z,103574.88
2023-02-11T21:53:21.426Z,103588.66
2023-02-11T21:55:49.239Z,103581.53
2023-02-11T21:58:15.750Z,103606.50
2023-02-11T22:00:42.329Z,103489.13
2023-02-11T22:03:08.956Z,103593.16
2023-02-11T22:05:35.583Z,103595.91
2023-02-11T22:08:02.418Z,103463.16
2023-02-11T22:10:29.032Z,103616.16
2023-02-11T22:12:55.622Z,103585.31
2023-02-11T22:15:22.188Z,103522.22
2023-02-11T22:17:48.763Z,103559.13
2023-02-11T22:20:16.803Z,103571.78
2023-02-11T22:22:43.348Z,103601.06
2023-02-11T22:25:09.887Z,103605.50
2023-02-11T22:27:36.417Z,103502.56
2023-02-11T22:30:03.749Z,103570.94
2023-02-11T22:32:30.365Z,103600.28
2023-02-11T22:34:57.367Z,103612.81
2023-02-11T22:37:24.120Z,103595.69
2023-02-11T22:39:50.814Z,103579.19
2023-02-11T22:42:17.377Z,103601.00
2023-02-11T22:44:44.039Z,103502.16
2023-02-11T22:47:10.654Z,103600.28
2023-02-11T22:49:37.431Z,103616.09
2023-02-11T22:52:04.196Z,103512.66
2023-02-11T22:54:31.378Z,103596.00
2023-02-11T22:56:58.016Z,103598.66
2023-02-11T22:59:24.565Z,103612.41
2023-02-11T23:01:51.245Z,103573.41
2023-02-11T23:04:19.234Z,103509.59
2023-02-11T23:06:47.531Z,103633.97
2023-02-11T23:09:14.047Z,103571.75
2023-02-11T23:11:41.402Z,103622.19
2023-02-11T23:14:10.064Z,103540.94
2023-02-11T23:16:36.761Z,103594.38
2023-02-11T23:19:06.672Z,103530.97
2023-02-11T23:21:35.953Z,103521.97
2023-02-11T23:24:07.436Z,103635.22
2023-02-11T23:26:35.018Z,103612.28
2023-02-11T23:29:01.576Z,103512.53
2023-02-11T23:31:33.878Z,103587.13
2023-02-11T23:34:01.215Z,103587.25
2023-02-11T23:36:28.658Z,103618.09
2023-02-11T23:38:55.621Z,103632.25
2023-02-11T23:41:22.837Z,103633.06
2023-02-11T23:43:59.470Z,103610.38
2023-02-11T23:46:27.564Z,103616.16
2023-02-11T23:48:54.749Z,103624.31
2023-02-11T23:51:22.006Z,103557.44
2023-02-11T23:53:49.642Z,103614.75
2023-02-11T23:56:19.535Z,103605.38
2023-02-11T23:58:51.155Z,103546.44
